Time;durP1;ratioP1;P1;durP2;ratioP2;P2;SDS_P1;SDS_P2;PMS_P1;PMS_P2;Temp;Humidity;BMP_temperature;BMP_pressure;BME280_temperature;BME280_humidity;BME280_pressure;Samples;Min_cycle;Max_cycle;Signal;HPM_P1;HPM_P2
2021/04/10 00:01:22;;;;;;;3.93;1.50;;;;;;;11.00;58.45;96135.81;4967454;28;20742;-68
2021/04/10 00:03:50;;;;;;;6.20;1.50;;;;;;;10.98;58.64;96137.69;4986178;28;20940;-70
2021/04/10 00:06:17;;;;;;;5.80;1.60;;;;;;;10.89;59.28;96140.94;4972562;28;20784;-69
2021/04/10 00:08:44;;;;;;;10.60;1.77;;;;;;;10.87;59.53;96147.19;4973434;28;20917;-70
2021/04/10 00:11:11;;;;;;;6.43;1.57;;;;;;;10.77;60.15;96144.41;4973117;28;20698;-69
2021/04/10 00:13:38;;;;;;;7.17;1.60;;;;;;;10.81;60.15;96145.88;4970510;28;20986;-69
2021/04/10 00:16:06;;;;;;;9.17;1.33;;;;;;;10.87;60.42;96144.59;4976385;28;20918;-69
2021/04/10 00:18:33;;;;;;;3.77;1.57;;;;;;;10.88;60.30;96147.09;4971199;28;20551;-68
2021/04/10 00:21:00;;;;;;;4.10;1.30;;;;;;;10.99;60.08;96139.34;4967640;28;20993;-68
2021/04/10 00:23:27;;;;;;;5.57;1.83;;;;;;;11.11;59.53;96137.66;4969046;28;21007;-70
2021/04/10 00:25:54;;;;;;;5.00;1.23;;;;;;;11.14;59.20;96142.66;4970409;28;20452;-69
2021/04/10 00:28:21;;;;;;;11.97;1.77;;;;;;;11.21;59.26;96131.66;4980066;28;20464;-70
2021/04/10 00:30:48;;;;;;;9.60;1.60;;;;;;;11.23;59.25;96131.56;4974370;28;20912;-70
2021/04/10 00:33:16;;;;;;;2.47;1.13;;;;;;;11.25;59.49;96135.72;4969949;28;20472;-69
2021/04/10 00:35:43;;;;;;;3.30;1.40;;;;;;;11.22;59.53;96138.56;4977133;28;20444;-68
2021/04/10 00:38:11;;;;;;;3.60;1.13;;;;;;;11.14;59.88;96143.50;4973383;28;20463;-68
2021/04/10 00:40:38;;;;;;;7.07;1.67;;;;;;;10.99;60.38;96143.75;4972036;28;20449;-68
2021/04/10 00:43:05;;;;;;;4.00;1.93;;;;;;;10.91;60.69;96141.66;4970297;28;20947;-67
2021/04/10 00:45:32;;;;;;;7.13;1.67;;;;;;;10.90;60.49;96141.78;4971509;28;20888;-68
2021/04/10 00:47:59;;;;;;;2.93;1.50;;;;;;;10.90;60.69;96133.97;4971743;28;20460;-68
2021/04/10 00:50:26;;;;;;;4.20;1.83;;;;;;;10.87;60.69;96129.81;4971130;28;20441;-68
2021/04/10 00:52:53;;;;;;;4.90;1.37;;;;;;;10.90;60.66;96129.59;4970811;28;20456;-68
2021/04/10 00:55:22;;;;;;;4.97;1.63;;;;;;;10.93;60.62;96133.75;4974885;28;20967;-69
2021/04/10 00:57:49;;;;;;;4.53;1.67;;;;;;;10.98;60.37;96122.06;4982886;28;21074;-69
2021/04/10 01:00:18;;;;;;;5.43;3.27;;;;;;;11.01;60.21;96121.88;4969012;28;20428;-69
2021/04/10 01:02:45;;;;;;;12.57;1.40;;;;;;;11.05;60.38;96112.88;4971537;28;20477;-70
2021/04/10 01:05:13;;;;;;;10.13;1.83;;;;;;;11.04;60.17;96110.41;4968109;28;20433;-68
2021/04/10 01:07:40;;;;;;;4.77;1.60;;;;;;;11.01;60.49;96111.44;4963786;28;20979;-71
2021/04/10 01:10:09;;;;;;;6.60;1.63;;;;;;;11.03;60.32;96108.72;4970632;28;21157;-69
2021/04/10 01:12:47;;;;;;;6.33;1.70;;;;;;;11.00;60.23;96111.53;4975329;28;21015;-73
2021/04/10 01:15:23;;;;;;;3.00;1.33;;;;;;;11.03;60.06;96100.91;4970421;28;20769;-70
2021/04/10 01:17:54;;;;;;;4.40;1.57;;;;;;;11.01;60.18;96105.41;4973591;28;20771;-70
2021/04/10 01:20:50;;;;;;;4.70;1.30;;;;;;;11.01;60.34;96101.03;4978828;28;20522;-69
2021/04/10 01:23:37;;;;;;;5.80;1.37;;;;;;;11.05;59.98;96099.03;4964094;28;20612;-68
2021/04/10 01:26:23;;;;;;;5.30;1.50;;;;;;;10.96;60.31;96103.13;4970443;28;20536;-69
2021/04/10 01:28:58;;;;;;;8.30;1.67;;;;;;;10.99;60.11;96099.47;4973486;28;20995;-70
2021/04/10 01:31:31;;;;;;;8.70;1.87;;;;;;;10.91;60.14;96105.22;4971224;28;20440;-67
2021/04/10 01:34:02;;;;;;;13.50;1.97;;;;;;;10.88;60.42;96110.66;4979351;28;20968;-68
2021/04/10 01:36:32;;;;;;;3.07;1.40;;;;;;;10.90;60.48;96120.97;4969104;28;20468;-69
2021/04/10 01:39:01;;;;;;;3.13;1.53;;;;;;;10.92;60.50;96117.31;4967830;28;20849;-70
2021/04/10 01:41:29;;;;;;;6.40;1.47;;;;;;;10.85;60.44;96110.88;4967316;28;20898;-70
2021/04/10 01:43:57;;;;;;;3.40;1.43;;;;;;;10.83;60.60;96128.34;4965931;28;20522;-67
2021/04/10 01:46:26;;;;;;;6.30;1.57;;;;;;;10.83;60.53;96127.53;4971214;28;20421;-69
2021/04/10 01:48:54;;;;;;;5.30;1.60;;;;;;;10.79;60.86;96126.94;4970806;28;20470;-71
2021/04/10 01:51:22;;;;;;;3.83;1.33;;;;;;;10.81;60.82;96126.78;4963948;28;20942;-71
2021/04/10 01:53:50;;;;;;;2.73;1.67;;;;;;;10.81;60.58;96114.63;4972282;28;20927;-69
2021/04/10 01:56:19;;;;;;;1.93;1.17;;;;;;;10.77;60.38;96115.75;4968980;28;20948;-69
2021/04/10 01:58:47;;;;;;;2.83;1.40;;;;;;;10.75;60.68;96109.03;4967128;28;20796;-68
2021/04/10 02:01:16;;;;;;;11.23;1.53;;;;;;;10.80;60.39;96106.91;4971851;28;20935;-70
2021/04/10 02:03:44;;;;;;;2.87;1.30;;;;;;;10.77;60.63;96102.75;4969140;28;20984;-68
2021/04/10 02:06:13;;;;;;;1.80;0.77;;;;;;;10.79;60.12;96092.25;4969915;28;20434;-69
2021/04/10 02:08:42;;;;;;;8.50;1.63;;;;;;;10.81;60.21;96098.16;4965631;28;20955;-68
2021/04/10 02:11:15;;;;;;;6.30;1.30;;;;;;;10.79;60.26;96093.09;4980056;28;21024;-70
2021/04/10 02:13:43;;;;;;;8.70;1.23;;;;;;;10.83;59.85;96093.69;4981453;28;20777;-70
2021/04/10 02:16:10;;;;;;;5.53;1.00;;;;;;;10.92;59.90;96093.03;4968831;28;20444;-71
2021/04/10 02:18:39;;;;;;;4.00;1.40;;;;;;;10.84;60.21;96103.97;4962636;28;20468;-71
2021/04/10 02:21:08;;;;;;;7.47;1.33;;;;;;;10.80;59.68;96084.31;4954181;28;20504;-69
2021/04/10 02:23:38;;;;;;;3.40;1.60;;;;;;;10.81;60.18;96093.81;4964080;28;20462;-71
2021/04/10 02:26:05;;;;;;;3.60;1.43;;;;;;;10.76;60.09;96095.88;4961946;28;20485;-69
2021/04/10 02:28:32;;;;;;;9.17;1.30;;;;;;;10.72;60.30;96088.41;4966194;28;20952;-70
2021/04/10 02:31:01;;;;;;;2.27;1.37;;;;;;;10.75;60.46;96091.63;4972387;28;20492;-69
2021/04/10 02:33:32;;;;;;;7.77;1.13;;;;;;;10.75;60.50;96094.22;4968666;28;21026;-70
2021/04/10 02:36:01;;;;;;;3.87;0.90;;;;;;;10.73;60.77;96096.13;4971231;28;20500;-72
2021/04/10 02:38:32;;;;;;;4.30;1.57;;;;;;;10.72;61.03;96084.03;4966515;28;20469;-70
2021/04/10 02:41:08;;;;;;;6.40;1.43;;;;;;;10.73;61.12;96088.31;4963017;28;20443;-71
2021/04/10 02:43:38;;;;;;;1.30;0.90;;;;;;;10.71;61.33;96108.41;4969179;28;20968;-69
2021/04/10 02:46:08;;;;;;;3.97;1.20;;;;;;;10.70;61.61;96101.50;4964371;28;20835;-71
2021/04/10 02:48:39;;;;;;;4.30;1.20;;;;;;;10.69;61.56;96099.84;4968279;28;20473;-69
2021/04/10 02:51:08;;;;;;;5.40;1.30;;;;;;;10.76;61.56;96101.09;4969214;28;20461;-71
2021/04/10 02:53:38;;;;;;;3.43;1.10;;;;;;;10.79;61.74;96107.84;4963661;28;21032;-69
2021/04/10 02:56:08;;;;;;;4.70;1.03;;;;;;;10.76;62.26;96106.28;4966906;28;20851;-71
2021/04/10 02:58:36;;;;;;;4.00;1.00;;;;;;;10.84;62.55;96118.78;4970477;28;20465;-71
2021/04/10 03:01:05;;;;;;;3.87;1.20;;;;;;;10.87;63.14;96114.19;4957834;28;20757;-70
2021/04/10 03:03:34;;;;;;;3.03;1.30;;;;;;;10.88;63.23;96112.41;4944187;28;20789;-70
2021/04/10 03:06:03;;;;;;;4.23;1.13;;;;;;;10.83;64.11;96112.75;4959221;28;20726;-69
2021/04/10 03:08:32;;;;;;;6.83;1.27;;;;;;;10.87;64.38;96119.41;4955584;28;21027;-71
2021/04/10 03:10:59;;;;;;;5.77;0.90;;;;;;;10.83;65.12;96107.53;4959423;28;20452;-71
2021/04/10 03:13:26;;;;;;;3.57;1.00;;;;;;;10.88;65.59;96115.84;4966202;28;20927;-69
2021/04/10 03:15:54;;;;;;;5.07;1.20;;;;;;;10.81;66.20;96104.22;4947585;28;20945;-70
2021/04/10 03:18:23;;;;;;;8.63;1.33;;;;;;;10.83;66.82;96117.13;4966657;28;20472;-71
2021/04/10 03:20:51;;;;;;;7.17;1.30;;;;;;;10.76;67.62;96121.09;4969567;28;20445;-70
2021/04/10 03:23:18;;;;;;;7.77;1.20;;;;;;;10.72;68.56;96120.47;4968680;28;20771;-70
2021/04/10 03:25:46;;;;;;;7.63;1.00;;;;;;;10.65;69.13;96121.00;4955978;28;20942;-71
2021/04/10 03:28:14;;;;;;;6.47;1.27;;;;;;;10.60;69.68;96120.50;4961087;28;21029;-69
2021/04/10 03:30:41;;;;;;;2.73;1.07;;;;;;;10.54;70.54;96128.75;4958783;28;20798;-70
2021/04/10 03:33:09;;;;;;;3.73;1.70;;;;;;;10.47;71.46;96130.91;4968198;28;20968;-70
2021/04/10 03:35:36;;;;;;;4.97;1.53;;;;;;;10.35;71.99;96121.38;4967805;28;20884;-71
2021/04/10 03:38:04;;;;;;;3.23;1.20;;;;;;;10.38;72.25;96136.75;4956039;28;21142;-70
2021/04/10 03:40:32;;;;;;;10.47;1.70;;;;;;;10.36;72.62;96136.03;4956783;28;20433;-70
2021/04/10 03:43:00;;;;;;;3.30;1.20;;;;;;;10.23;73.46;96132.59;4956625;28;20462;-70
2021/04/10 03:45:27;;;;;;;2.57;0.97;;;;;;;10.20;73.88;96127.63;4962604;28;20442;-70
2021/04/10 03:47:55;;;;;;;2.60;1.20;;;;;;;10.25;74.24;96146.31;4968250;28;21129;-70
2021/04/10 03:50:23;;;;;;;2.60;1.40;;;;;;;10.24;74.28;96144.66;4970629;28;20440;-70
2021/04/10 03:52:50;;;;;;;3.57;1.20;;;;;;;10.16;74.73;96130.53;4961238;28;20461;-69
2021/04/10 03:55:18;;;;;;;3.00;1.17;;;;;;;10.12;74.74;96142.06;4962477;28;20966;-71
2021/04/10 03:57:45;;;;;;;2.50;1.20;;;;;;;10.14;74.34;96138.44;4967127;28;20501;-71
2021/04/10 04:00:15;;;;;;;3.93;1.20;;;;;;;10.13;74.68;96141.97;4970114;28;20436;-71
2021/04/10 04:02:42;;;;;;;6.07;1.10;;;;;;;10.09;74.86;96143.09;4968438;28;20879;-70
2021/04/10 04:05:11;;;;;;;3.57;1.30;;;;;;;10.03;75.35;96145.28;4961442;28;20922;-71
2021/04/10 04:07:38;;;;;;;4.17;1.00;;;;;;;9.99;74.49;96155.03;4968800;28;21033;-70
2021/04/10 04:10:10;;;;;;;3.27;0.93;;;;;;;9.92;75.12;96143.38;4964789;28;20800;-70
2021/04/10 04:12:38;;;;;;;5.03;1.57;;;;;;;9.91;74.72;96149.50;4958374;28;20461;-71
2021/04/10 04:15:07;;;;;;;3.03;1.20;;;;;;;9.93;74.56;96149.38;4961582;28;21117;-70
2021/04/10 04:17:35;;;;;;;2.83;1.10;;;;;;;9.95;74.43;96158.75;4961895;28;21046;-70
2021/04/10 04:20:04;;;;;;;2.90;1.20;;;;;;;9.91;73.96;96156.47;4967457;28;20839;-71
2021/04/10 04:22:31;;;;;;;4.40;1.23;;;;;;;9.91;73.92;96156.47;4969673;28;20785;-70
2021/04/10 04:24:59;;;;;;;1.20;1.00;;;;;;;9.80;73.82;96159.78;4966205;28;20447;-69
2021/04/10 04:27:26;;;;;;;2.93;1.20;;;;;;;9.81;73.70;96166.63;4958990;28;20775;-70
2021/04/10 04:29:54;;;;;;;8.97;1.27;;;;;;;9.78;73.56;96166.00;4955501;28;20434;-70
2021/04/10 04:32:22;;;;;;;3.37;1.13;;;;;;;9.75;73.75;96171.41;4949780;28;20858;-69
2021/04/10 04:34:50;;;;;;;2.87;0.80;;;;;;;9.75;73.49;96172.25;4944365;28;20674;-71
2021/04/10 04:37:17;;;;;;;8.10;1.10;;;;;;;9.73;73.80;96168.91;4948037;28;20947;-72
2021/04/10 04:39:44;;;;;;;2.50;1.03;;;;;;;9.67;74.06;96176.28;4953236;28;20913;-70
2021/04/10 04:42:12;;;;;;;2.90;1.07;;;;;;;9.70;73.92;96174.31;4957766;28;20838;-72
2021/04/10 04:44:39;;;;;;;5.13;0.97;;;;;;;9.72;73.83;96175.03;4947449;28;20923;-71
2021/04/10 04:47:06;;;;;;;4.90;1.40;;;;;;;9.63;73.72;96180.84;4946363;28;20501;-70
2021/04/10 04:49:33;;;;;;;4.10;1.10;;;;;;;9.66;73.76;96178.03;4950536;28;20441;-70
2021/04/10 04:52:01;;;;;;;4.67;1.00;;;;;;;9.63;73.93;96183.44;4957377;28;20781;-69
2021/04/10 04:54:28;;;;;;;1.50;1.10;;;;;;;9.55;73.73;96183.09;4954187;28;20964;-70
2021/04/10 04:56:57;;;;;;;4.10;1.00;;;;;;;9.61;73.47;96192.25;4950116;28;21137;-70
2021/04/10 04:59:26;;;;;;;3.30;0.90;;;;;;;9.57;73.66;96196.81;4961273;28;20461;-69
2021/04/10 05:01:53;;;;;;;2.83;0.97;;;;;;;9.56;73.50;96196.91;4947350;28;20445;-70
2021/04/10 05:04:21;;;;;;;6.83;1.00;;;;;;;9.52;74.13;96209.25;4952129;28;20561;-70
2021/04/10 05:06:48;;;;;;;4.53;1.30;;;;;;;9.56;73.96;96208.16;4948203;28;20517;-69
2021/04/10 05:09:16;;;;;;;2.37;1.17;;;;;;;9.61;73.73;96200.91;4948081;28;20477;-71
2021/04/10 05:11:43;;;;;;;3.10;1.40;;;;;;;9.57;74.01;96214.16;4953436;28;20440;-70
2021/04/10 05:14:10;;;;;;;4.10;0.90;;;;;;;9.51;74.38;96215.41;4947537;28;20463;-69
2021/04/10 05:16:42;;;;;;;2.17;0.90;;;;;;;9.55;74.32;96216.03;4945333;28;20953;-68
2021/04/10 05:19:09;;;;;;;3.00;1.20;;;;;;;9.54;74.03;96214.38;4951016;28;20847;-69
2021/04/10 05:21:36;;;;;;;3.00;0.97;;;;;;;9.52;74.23;96216.25;4949240;28;20836;-67
2021/04/10 05:24:04;;;;;;;2.40;0.80;;;;;;;9.43;74.45;96217.66;4948065;28;20458;-69
2021/04/10 05:26:32;;;;;;;3.40;1.23;;;;;;;9.43;74.65;96212.47;4960777;28;20481;-69
2021/04/10 05:28:59;;;;;;;2.80;1.30;;;;;;;9.42;74.50;96223.78;4968337;28;20830;-68
2021/04/10 05:31:26;;;;;;;2.30;1.30;;;;;;;9.46;74.69;96216.63;4978504;28;20440;-71
2021/04/10 05:33:53;;;;;;;1.10;0.80;;;;;;;9.47;74.23;96226.94;4968343;28;21140;-70
2021/04/10 05:36:21;;;;;;;1.10;0.77;;;;;;;9.47;74.32;96231.28;4973099;28;20758;-70
2021/04/10 05:38:48;;;;;;;4.77;1.43;;;;;;;9.53;74.11;96228.28;4976221;28;20469;-70
2021/04/10 05:41:15;;;;;;;5.33;1.27;;;;;;;9.46;74.21;96227.88;4968022;28;20449;-70
2021/04/10 05:43:43;;;;;;;5.70;1.20;;;;;;;9.56;73.84;96234.13;4967693;28;20949;-70
2021/04/10 05:46:10;;;;;;;8.93;1.07;;;;;;;9.56;73.68;96235.88;4962740;28;20935;-70
2021/04/10 05:48:38;;;;;;;2.53;1.03;;;;;;;9.51;73.73;96236.19;4966953;28;20504;-69
2021/04/10 05:51:05;;;;;;;2.50;1.10;;;;;;;9.58;72.74;96242.66;4957033;28;20955;-68
2021/04/10 05:53:33;;;;;;;3.77;1.30;;;;;;;9.64;72.66;96241.41;4962796;28;20475;-68
2021/04/10 05:56:00;;;;;;;5.43;1.23;;;;;;;9.64;72.27;96237.06;4963243;28;20915;-69
2021/04/10 05:58:27;;;;;;;6.00;0.90;;;;;;;9.68;71.67;96248.09;4959680;28;20476;-70
2021/04/10 06:00:55;;;;;;;5.20;1.27;;;;;;;9.63;71.18;96235.41;4968115;28;20430;-70
2021/04/10 06:03:23;;;;;;;1.33;0.97;;;;;;;9.72;70.61;96241.78;4970973;28;20558;-69
2021/04/10 06:05:50;;;;;;;5.23;1.00;;;;;;;9.66;71.03;96250.78;4972608;28;20889;-69
2021/04/10 06:08:17;;;;;;;4.60;1.70;;;;;;;9.69;70.93;96250.63;4964693;28;20488;-70
2021/04/10 06:10:44;;;;;;;4.13;1.10;;;;;;;9.67;71.12;96252.44;4966813;28;20451;-71
2021/04/10 06:13:11;;;;;;;6.73;1.53;;;;;;;9.66;71.45;96261.19;4969312;28;20803;-70
2021/04/10 06:15:39;;;;;;;3.20;0.87;;;;;;;9.66;71.57;96258.59;4966666;28;20463;-69
2021/04/10 06:18:07;;;;;;;6.82;0.95;;;;;;;9.63;71.91;96250.16;4966399;28;20486;-68
2021/04/10 06:20:35;;;;;;;4.67;1.10;;;;;;;9.58;72.04;96242.66;4983164;28;20191;-70
2021/04/10 06:23:02;;;;;;;7.73;1.70;;;;;;;9.64;72.27;96257.84;4963650;28;20471;-70
2021/04/10 06:25:29;;;;;;;1.40;0.90;;;;;;;9.62;72.58;96259.72;4968179;28;20446;-67
2021/04/10 06:27:56;;;;;;;5.53;1.33;;;;;;;9.56;72.88;96252.31;4984974;28;21033;-70
2021/04/10 06:30:23;;;;;;;3.00;1.43;;;;;;;9.66;72.58;96266.38;4971697;28;20832;-69
2021/04/10 06:32:50;;;;;;;1.67;0.97;;;;;;;9.66;73.13;96263.78;4967722;28;20943;-69
2021/04/10 06:35:19;;;;;;;1.40;0.80;;;;;;;9.69;73.04;96271.41;4966476;28;20905;-69
2021/04/10 06:37:47;;;;;;;5.00;1.07;;;;;;;9.67;73.35;96273.25;4964416;28;20945;-69
2021/04/10 06:40:14;;;;;;;2.77;1.20;;;;;;;9.65;73.50;96280.31;4966327;28;20918;-69
2021/04/10 06:42:42;;;;;;;3.83;1.03;;;;;;;9.69;73.59;96276.59;4969277;28;20468;-71
2021/04/10 06:45:10;;;;;;;7.20;1.10;;;;;;;9.71;74.05;96273.88;4970821;28;20514;-69
2021/04/10 06:47:38;;;;;;;4.80;1.10;;;;;;;9.75;74.08;96280.56;4948361;28;20574;-70
2021/04/10 06:50:07;;;;;;;4.13;1.00;;;;;;;9.76;74.02;96284.81;4958365;28;20831;-70
2021/04/10 06:52:38;;;;;;;6.40;1.20;;;;;;;9.71;74.24;96274.72;4957788;28;20468;-69
2021/04/10 06:55:08;;;;;;;2.93;0.90;;;;;;;9.80;73.90;96278.50;4967889;28;20934;-70
2021/04/10 06:57:45;;;;;;;4.10;1.20;;;;;;;9.84;73.88;96285.16;4957346;28;20492;-70
2021/04/10 07:00:13;;;;;;;5.60;1.50;;;;;;;9.73;74.28;96283.25;4962580;28;20461;-68
2021/04/10 07:02:41;;;;;;;3.10;1.63;;;;;;;9.72;74.60;96285.97;4964881;28;20945;-70
2021/04/10 07:05:09;;;;;;;3.00;0.90;;;;;;;9.70;74.63;96283.47;4974170;28;20425;-73
2021/04/10 07:07:36;;;;;;;2.40;1.07;;;;;;;9.73;74.70;96282.44;4969588;28;20957;-73
2021/04/10 07:10:05;;;;;;;1.20;0.87;;;;;;;9.68;75.14;96287.06;4972772;28;20440;-72
2021/04/10 07:12:32;;;;;;;2.03;1.30;;;;;;;9.64;74.84;96286.44;4962227;28;20560;-73
2021/04/10 07:14:59;;;;;;;3.67;1.10;;;;;;;9.59;75.10;96291.09;4973205;28;20448;-74
2021/04/10 07:17:29;;;;;;;3.67;1.33;;;;;;;9.56;75.57;96288.69;4981532;28;20453;-71
2021/04/10 07:19:56;;;;;;;4.30;1.23;;;;;;;9.49;75.66;96295.19;4974334;28;20892;-72
2021/04/10 07:22:23;;;;;;;2.07;1.30;;;;;;;9.56;75.57;96298.22;4969680;28;20548;-73
2021/04/10 07:24:52;;;;;;;5.83;0.97;;;;;;;9.60;75.51;96307.53;4969494;28;20444;-74
2021/04/10 07:27:21;;;;;;;4.27;1.10;;;;;;;9.56;75.83;96300.84;4958789;28;21076;-73
2021/04/10 07:29:50;;;;;;;4.30;2.23;;;;;;;9.57;76.21;96311.13;4964276;28;20896;-74
2021/04/10 07:32:28;;;;;;;1.70;0.80;;;;;;;9.55;75.82;96296.56;4967829;28;20988;-74
2021/04/10 07:34:57;;;;;;;3.73;1.33;;;;;;;9.65;76.07;96308.88;4967053;28;20454;-74
2021/04/10 07:37:35;;;;;;;2.20;1.07;;;;;;;9.66;75.49;96302.75;4969906;28;20973;-71
2021/04/10 07:40:07;;;;;;;12.23;1.57;;;;;;;9.71;75.16;96315.47;4969842;28;20915;-71
2021/04/10 07:42:37;;;;;;;1.67;0.70;;;;;;;9.73;75.34;96314.44;4973889;28;20871;-73
2021/04/10 07:45:07;;;;;;;2.60;1.10;;;;;;;9.74;75.42;96310.91;4969000;28;21086;-71
2021/04/10 07:47:36;;;;;;;5.13;1.00;;;;;;;9.77;75.35;96320.28;4964350;28;21183;-70
2021/04/10 07:50:15;;;;;;;6.40;1.10;;;;;;;9.77;75.41;96321.13;4950906;28;21199;-72
2021/04/10 07:52:42;;;;;;;4.10;1.30;;;;;;;9.78;75.17;96307.19;4970968;28;20832;-72
2021/04/10 07:55:38;;;;;;;3.80;1.23;;;;;;;9.76;75.50;96319.47;4962481;28;20748;-75
2021/04/10 07:58:30;;;;;;;2.77;1.07;;;;;;;9.79;75.62;96319.25;4963054;28;21007;-71
2021/04/10 08:00:59;;;;;;;5.67;1.63;;;;;;;9.80;75.86;96328.72;4956318;28;20445;-71
2021/04/10 08:03:32;;;;;;;2.83;1.03;;;;;;;9.85;75.40;96324.06;4962783;28;20468;-71
2021/04/10 08:06:16;;;;;;;2.63;1.10;;;;;;;9.82;75.95;96326.03;4970657;28;20797;-70
2021/04/10 08:08:52;;;;;;;6.23;0.93;;;;;;;9.83;75.88;96331.13;4964196;28;20958;-71
2021/04/10 08:11:42;;;;;;;4.20;0.90;;;;;;;9.78;75.85;96327.97;4973063;28;20452;-71
2021/04/10 08:14:11;;;;;;;3.73;1.10;;;;;;;9.75;76.30;96316.94;4961346;28;20930;-74
2021/04/10 08:16:40;;;;;;;2.53;1.03;;;;;;;9.76;76.33;96329.84;4976285;28;20436;-70
2021/04/10 08:19:07;;;;;;;4.70;1.30;;;;;;;9.81;76.33;96326.97;4969775;28;20457;-71
2021/04/10 08:21:44;;;;;;;3.93;0.97;;;;;;;9.78;76.44;96325.38;4972399;28;20440;-71
2021/04/10 08:24:28;;;;;;;4.50;1.53;;;;;;;9.83;76.45;96323.34;4962806;28;20473;-71
2021/04/10 08:26:58;;;;;;;1.17;0.87;;;;;;;9.99;76.11;96330.97;4972711;28;20472;-73
2021/04/10 08:29:26;;;;;;;1.43;0.77;;;;;;;9.98;76.28;96335.38;4969597;28;20472;-71
2021/04/10 08:31:54;;;;;;;6.80;1.20;;;;;;;10.00;76.24;96325.69;4970955;28;20911;-72
2021/04/10 08:34:23;;;;;;;2.07;1.03;;;;;;;10.02;76.23;96331.63;4951148;28;20446;-71
2021/04/10 08:36:52;;;;;;;2.63;1.33;;;;;;;10.15;76.31;96332.53;4967437;28;20931;-73
2021/04/10 08:39:28;;;;;;;5.33;0.80;;;;;;;10.24;75.48;96328.53;4975388;28;20514;-72
2021/04/10 08:41:58;;;;;;;1.00;0.90;;;;;;;10.31;75.46;96325.41;4976849;28;20901;-71
2021/04/10 08:44:29;;;;;;;5.57;1.37;;;;;;;10.23;75.39;96325.06;4961677;28;20464;-71
2021/04/10 08:46:56;;;;;;;4.00;1.07;;;;;;;10.32;75.36;96324.47;4966913;28;20439;-71
2021/04/10 08:49:25;;;;;;;2.53;1.10;;;;;;;10.43;75.01;96322.00;4963625;28;20476;-71
2021/04/10 08:51:58;;;;;;;3.13;1.20;;;;;;;10.56;74.60;96327.22;4975792;28;20940;-70
2021/04/10 08:54:25;;;;;;;2.17;1.40;;;;;;;10.72;74.25;96330.47;4970774;28;20809;-74
2021/04/10 08:56:52;;;;;;;8.47;1.27;;;;;;;11.04;73.82;96322.16;4972978;28;20448;-73
2021/04/10 08:59:21;;;;;;;3.40;0.90;;;;;;;11.27;72.65;96326.63;4970493;28;20864;-71
2021/04/10 09:02:10;;;;;;;2.80;0.97;;;;;;;11.40;71.98;96324.00;4971239;28;20808;-71
2021/04/10 09:05:01;;;;;;;2.20;0.70;;;;;;;11.56;71.21;96332.44;4972690;28;20566;-74
2021/04/10 09:08:08;;;;;;;1.20;0.90;;;;;;;11.52;71.30;96326.63;4972209;28;20829;-73
2021/04/10 09:10:51;;;;;;;2.07;0.90;;;;;;;11.69;71.22;96334.09;4974598;28;20430;-73
2021/04/10 09:13:47;;;;;;;2.40;0.83;;;;;;;11.91;70.44;96331.66;4967321;28;20821;-73
2021/04/10 09:16:38;;;;;;;1.10;0.80;;;;;;;12.25;69.02;96330.88;4960322;28;20433;-73
2021/04/10 09:19:14;;;;;;;2.07;0.80;;;;;;;12.30;68.24;96326.16;4979023;28;20480;-72
2021/04/10 09:21:45;;;;;;;3.83;0.80;;;;;;;12.22;68.12;96328.47;4976692;28;20468;-75
2021/04/10 09:24:41;;;;;;;2.20;1.10;;;;;;;12.23;68.36;96326.72;4964881;28;20475;-74
2021/04/10 09:27:17;;;;;;;2.43;1.10;;;;;;;12.21;69.13;96326.81;4972411;28;20467;-73
2021/04/10 09:29:47;;;;;;;2.53;1.07;;;;;;;12.19;67.39;96310.47;4985705;28;20917;-75
2021/04/10 09:32:33;;;;;;;5.60;0.83;;;;;;;12.25;68.83;96323.06;4973799;28;20444;-73
2021/04/10 09:35:01;;;;;;;1.40;1.10;;;;;;;12.18;67.87;96319.22;4978069;28;20461;-75
2021/04/10 09:37:57;;;;;;;1.20;0.90;;;;;;;11.97;68.36;96331.22;4974703;28;20465;-72
2021/04/10 09:40:43;;;;;;;1.10;1.00;;;;;;;11.88;69.08;96323.19;4965280;28;20442;-73
2021/04/10 09:43:10;;;;;;;3.17;0.80;;;;;;;11.90;68.93;96327.38;4977779;28;20988;-74
2021/04/10 09:45:38;;;;;;;2.37;0.90;;;;;;;11.84;68.72;96322.59;4975179;28;20632;-71
2021/04/10 09:48:19;;;;;;;2.70;0.90;;;;;;;11.79;69.34;96324.69;4967948;28;20778;-72
2021/04/10 09:51:06;;;;;;;1.43;0.80;;;;;;;11.89;69.13;96317.88;4974062;28;20988;-73
2021/04/10 09:54:12;;;;;;;4.73;0.83;;;;;;;11.99;68.51;96321.50;4967538;28;20454;-71
2021/04/10 09:56:39;;;;;;;6.10;0.70;;;;;;;11.98;68.54;96317.22;4969027;28;20440;-72
2021/04/10 09:59:06;;;;;;;2.23;0.80;;;;;;;12.00;68.62;96327.56;4970658;28;20469;-72
2021/04/10 10:01:38;;;;;;;6.00;1.20;;;;;;;12.06;68.43;96327.94;4965072;28;20437;-72
2021/04/10 10:04:13;;;;;;;3.43;0.80;;;;;;;12.11;68.10;96325.84;4973938;28;20945;-70
2021/04/10 10:06:46;;;;;;;3.10;1.20;;;;;;;12.37;67.87;96323.94;4970717;28;21010;-72
2021/04/10 10:09:26;;;;;;;5.80;1.00;;;;;;;12.59;67.20;96324.03;4965918;28;20481;-73
2021/04/10 10:11:54;;;;;;;1.57;0.80;;;;;;;12.70;66.60;96320.47;4964908;28;20527;-73
2021/04/10 10:14:22;;;;;;;1.33;0.80;;;;;;;13.09;66.05;96322.75;4963897;28;20960;-71
2021/04/10 10:16:49;;;;;;;1.33;0.80;;;;;;;13.34;65.06;96319.91;4974677;28;20733;-73
2021/04/10 10:19:18;;;;;;;7.53;0.93;;;;;;;13.44;64.26;96317.44;4963587;28;20906;-72
2021/04/10 10:21:47;;;;;;;1.30;0.90;;;;;;;13.58;64.00;96319.81;4960128;28;20920;-71
2021/04/10 10:24:20;;;;;;;1.57;0.80;;;;;;;13.45;63.57;96316.47;4960020;28;20481;-73
2021/04/10 10:26:47;;;;;;;6.80;1.23;;;;;;;13.58;63.59;96315.38;4968895;28;20936;-72
2021/04/10 10:29:16;;;;;;;3.77;1.10;;;;;;;13.76;62.67;96297.41;4971579;28;20520;-73
2021/04/10 10:31:45;;;;;;;3.23;1.00;;;;;;;13.82;63.08;96307.41;4967629;28;20448;-71
2021/04/10 10:34:14;;;;;;;3.20;1.00;;;;;;;13.68;63.22;96299.81;4967672;28;20505;-72
2021/04/10 10:36:43;;;;;;;2.23;1.00;;;;;;;13.74;63.28;96301.94;4966357;28;21012;-71
2021/04/10 10:39:24;;;;;;;1.43;0.90;;;;;;;13.68;63.11;96298.03;4965330;28;20824;-72
2021/04/10 10:41:51;;;;;;;1.00;0.80;;;;;;;13.63;62.95;96300.16;4972318;28;21019;-70
2021/04/10 10:44:19;;;;;;;3.13;0.93;;;;;;;13.76;63.16;96298.25;4965363;28;21020;-71
2021/04/10 10:46:46;;;;;;;1.30;0.93;;;;;;;13.97;62.15;96299.16;4965032;28;20438;-71
2021/04/10 10:49:13;;;;;;;2.53;0.93;;;;;;;13.92;62.68;96297.88;4974296;28;20811;-73
2021/04/10 10:51:42;;;;;;;5.17;0.97;;;;;;;13.83;62.92;96288.13;4965418;28;20438;-75
2021/04/10 10:54:09;;;;;;;2.10;1.00;;;;;;;13.78;62.26;96288.50;4969131;28;20468;-71
2021/04/10 10:56:36;;;;;;;1.53;0.80;;;;;;;13.87;62.71;96286.94;4968644;28;21104;-73
2021/04/10 10:59:05;;;;;;;2.17;0.87;;;;;;;14.05;62.05;96285.47;4961017;28;21094;-71
2021/04/10 11:01:35;;;;;;;2.07;1.00;;;;;;;14.41;61.00;96285.97;4973407;28;21165;-71
2021/04/10 11:04:06;;;;;;;1.70;0.90;;;;;;;14.50;60.83;96272.09;4971397;28;20960;-71
2021/04/10 11:06:34;;;;;;;1.90;1.07;;;;;;;14.70;60.60;96279.16;4967572;28;20433;-72
2021/04/10 11:09:06;;;;;;;3.33;1.10;;;;;;;14.62;60.14;96278.97;4972521;28;20961;-74
2021/04/10 11:11:36;;;;;;;3.00;1.20;;;;;;;14.44;60.72;96274.41;4972682;28;20986;-72
2021/04/10 11:14:05;;;;;;;1.33;0.90;;;;;;;14.40;60.92;96262.50;4966488;28;20848;-72
2021/04/10 11:16:32;;;;;;;1.13;0.90;;;;;;;14.44;61.17;96277.03;4972185;28;20444;-72
2021/04/10 11:19:00;;;;;;;3.77;1.10;;;;;;;14.59;60.72;96273.16;4964962;28;20505;-72
2021/04/10 11:21:30;;;;;;;2.90;0.80;;;;;;;14.79;60.81;96265.28;4965359;28;20471;-72
2021/04/10 11:24:09;;;;;;;2.10;1.33;;;;;;;15.02;60.50;96268.59;4983370;28;20479;-71
2021/04/10 11:26:44;;;;;;;4.13;1.10;;;;;;;14.89;59.99;96263.53;4961742;28;20477;-72
2021/04/10 11:29:39;;;;;;;1.27;0.87;;;;;;;14.59;60.89;96268.72;4967328;28;20466;-71
2021/04/10 11:32:25;;;;;;;1.10;0.80;;;;;;;14.28;61.34;96260.88;4961920;28;20524;-70
2021/04/10 11:34:56;;;;;;;1.93;0.90;;;;;;;14.10;61.91;96260.59;4971639;28;20452;-71
2021/04/10 11:37:37;;;;;;;2.30;0.90;;;;;;;14.08;62.24;96262.47;4971643;28;20909;-71
2021/04/10 11:40:07;;;;;;;1.37;0.90;;;;;;;14.03;62.18;96258.59;4971534;28;20477;-71
2021/04/10 11:42:37;;;;;;;1.67;1.00;;;;;;;14.11;61.98;96261.41;4969054;28;20457;-73
2021/04/10 11:45:07;;;;;;;5.47;0.87;;;;;;;14.16;62.40;96264.50;4966400;28;20524;-70
2021/04/10 11:47:36;;;;;;;6.77;1.27;;;;;;;14.23;61.81;96261.25;4969764;28;20455;-73
2021/04/10 11:50:10;;;;;;;3.00;0.90;;;;;;;14.11;62.51;96256.19;4965849;28;20540;-73
2021/04/10 11:52:38;;;;;;;3.83;1.00;;;;;;;14.06;63.01;96253.94;4971766;28;20460;-72